createdAt,value
2023-09-16T00:02:23.684Z,116.67
2023-09-16T00:04:50.174Z,113.68
2023-09-16T00:07:16.832Z,111.07
2023-09-16T00:09:43.333Z,106.22
2023-09-16T00:12:09.816Z,109.25
2023-09-16T00:14:36.191Z,108.57
2023-09-16T00:17:02.597Z,107.72
2023-09-16T00:19:29.059Z,112.90
2023-09-16T00:21:55.480Z,124.75
2023-09-16T00:24:21.876Z,114.68
2023-09-16T00:26:48.271Z,116.33
2023-09-16T00:29:14.809Z,115.30
2023-09-16T00:31:41.243Z,117.35
2023-09-16T00:34:07.775Z,110.68
2023-09-16T00:36:34.208Z,112.60
2023-09-16T00:39:00.620Z,110.57
2023-09-16T00:41:27.116Z,110.00
2023-09-16T00:43:53.520Z,113.55
2023-09-16T00:46:19.917Z,111.32
2023-09-16T00:48:46.486Z,117.75
2023-09-16T00:51:13.066Z,120.47
2023-09-16T00:53:39.839Z,113.78
2023-09-16T00:56:06.272Z,111.82
2023-09-16T00:58:32.778Z,110.43
2023-09-16T01:00:59.265Z,108.07
2023-09-16T01:03:25.873Z,108.63
2023-09-16T01:05:52.535Z,108.05
2023-09-16T01:08:18.980Z,111.65
2023-09-16T01:10:45.441Z,111.28
2023-09-16T01:13:11.953Z,111.90
2023-09-16T01:15:48.001Z,109.43
2023-09-16T01:18:14.381Z,112.35
2023-09-16T01:20:41.075Z,111.55
2023-09-16T01:23:08.089Z,114.32
2023-09-16T01:25:34.499Z,114.43
2023-09-16T01:28:00.947Z,110.40
2023-09-16T01:30:28.564Z,111.85
2023-09-16T01:32:58.508Z,123.40
2023-09-16T01:35:25.306Z,121.53
2023-09-16T01:37:53.158Z,114.35
2023-09-16T01:40:22.376Z,120.03
2023-09-16T01:42:48.882Z,125.53
2023-09-16T01:45:15.746Z,115.78
2023-09-16T01:47:42.572Z,113.90
2023-09-16T01:50:09.141Z,112.13
2023-09-16T01:52:35.555Z,122.83
2023-09-16T01:55:02.011Z,110.90
2023-09-16T01:57:28.534Z,109.93
2023-09-16T01:59:54.987Z,115.70
2023-09-16T02:02:21.432Z,113.20
2023-09-16T02:04:47.807Z,110.53
2023-09-16T02:07:14.277Z,116.07
2023-09-16T02:09:41.545Z,106.80
2023-09-16T02:12:07.974Z,108.97
2023-09-16T02:14:37.320Z,111.30
2023-09-16T02:17:03.732Z,110.70
2023-09-16T02:19:30.195Z,109.80
2023-09-16T02:21:56.731Z,108.50
2023-09-16T02:24:23.231Z,102.13
2023-09-16T02:26:49.633Z,102.32
2023-09-16T02:29:16.041Z,103.97
2023-09-16T02:31:42.565Z,100.82
2023-09-16T02:34:09.065Z,100.78
2023-09-16T02:36:35.621Z,102.22
2023-09-16T02:39:02.025Z,104.18
2023-09-16T02:41:28.425Z,104.73
2023-09-16T02:43:54.923Z,106.88
2023-09-16T02:46:21.376Z,113.18
2023-09-16T02:48:48.077Z,110.03
2023-09-16T02:51:14.888Z,110.38
2023-09-16T02:53:41.258Z,107.43
2023-09-16T02:56:07.692Z,104.22
2023-09-16T02:58:34.093Z,102.55
2023-09-16T03:01:00.630Z,102.40
2023-09-16T03:03:27.188Z,104.78
2023-09-16T03:05:53.714Z,105.87
2023-09-16T03:08:20.100Z,109.78
2023-09-16T03:10:46.465Z,107.68
2023-09-16T03:13:13.069Z,104.88
2023-09-16T03:15:45.864Z,105.18
2023-09-16T03:18:12.272Z,104.40
2023-09-16T03:20:38.753Z,103.25
2023-09-16T03:23:05.247Z,102.30
2023-09-16T03:25:31.691Z,105.13
2023-09-16T03:27:58.257Z,103.97
2023-09-16T03:30:24.728Z,107.63
2023-09-16T03:32:51.220Z,108.32
2023-09-16T03:35:17.659Z,105.82
2023-09-16T03:37:44.058Z,103.18
2023-09-16T03:40:10.520Z,101.63
2023-09-16T03:42:37.051Z,99.57
2023-09-16T03:45:09.526Z,101.78
2023-09-16T03:47:41.920Z,101.68
2023-09-16T03:50:08.386Z,101.45
2023-09-16T03:52:34.818Z,101.35
2023-09-16T03:55:01.293Z,100.93
2023-09-16T03:57:27.717Z,100.20
2023-09-16T03:59:54.096Z,100.65
2023-09-16T04:02:20.595Z,101.80
2023-09-16T04:04:46.989Z,102.55
2023-09-16T04:07:13.420Z,102.57
2023-09-16T04:09:39.850Z,100.63
2023-09-16T04:12:06.472Z,104.45
2023-09-16T04:14:32.885Z,102.43
2023-09-16T04:16:59.422Z,105.45
2023-09-16T04:19:25.825Z,104.40
2023-09-16T04:21:52.186Z,101.88
2023-09-16T04:24:20.189Z,102.30
2023-09-16T04:26:46.583Z,102.22
2023-09-16T04:29:13.969Z,102.68
2023-09-16T04:31:41.883Z,104.40
2023-09-16T04:34:08.338Z,101.97
2023-09-16T04:36:34.795Z,102.75
2023-09-16T04:39:01.245Z,101.93
2023-09-16T04:41:27.701Z,103.75
2023-09-16T04:43:54.265Z,102.30
2023-09-16T04:46:20.693Z,103.22
2023-09-16T04:48:47.417Z,104.75
2023-09-16T04:51:14.079Z,104.45
2023-09-16T04:53:40.659Z,106.30
2023-09-16T04:56:07.062Z,106.03
2023-09-16T04:58:33.660Z,107.45
2023-09-16T05:01:00.640Z,108.93
2023-09-16T05:03:27.339Z,108.40
2023-09-16T05:05:53.864Z,111.28
2023-09-16T05:08:21.065Z,111.73
2023-09-16T05:10:53.132Z,107.88
2023-09-16T05:13:19.553Z,107.93
2023-09-16T05:15:49.415Z,106.10
2023-09-16T05:18:15.876Z,106.60
2023-09-16T05:20:42.249Z,109.03
2023-09-16T05:23:09.079Z,109.68
2023-09-16T05:25:35.500Z,112.40
2023-09-16T05:28:01.938Z,109.13
2023-09-16T05:30:28.429Z,107.43
2023-09-16T05:32:55.047Z,115.13
2023-09-16T05:35:21.442Z,103.65
2023-09-16T05:37:48.103Z,102.32
2023-09-16T05:40:14.552Z,86.40
2023-09-16T05:42:40.985Z,72.57
2023-09-16T05:45:07.744Z,61.33
2023-09-16T05:47:34.290Z,47.45
2023-09-16T05:50:00.823Z,63.83
2023-09-16T05:52:27.299Z,37.40
2023-09-16T05:54:53.702Z,23.67
2023-09-16T05:57:20.115Z,22.73
2023-09-16T05:59:46.584Z,24.13
2023-09-16T06:02:12.984Z,52.53
2023-09-16T06:04:39.387Z,28.17
2023-09-16T06:07:05.947Z,20.38
2023-09-16T06:09:32.417Z,20.70
2023-09-16T06:11:58.798Z,16.35
2023-09-16T06:14:25.240Z,21.33
2023-09-16T06:16:51.769Z,18.27
2023-09-16T06:19:18.256Z,16.90
2023-09-16T06:21:44.793Z,22.20
2023-09-16T06:24:11.215Z,26.27
2023-09-16T06:26:37.640Z,18.70
2023-09-16T06:29:04.082Z,19.92
2023-09-16T06:31:30.784Z,22.10
2023-09-16T06:33:57.303Z,21.03
2023-09-16T06:36:23.918Z,20.35
2023-09-16T06:38:50.669Z,24.00
2023-09-16T06:41:17.369Z,20.45
2023-09-16T06:43:43.796Z,18.83
2023-09-16T06:46:10.339Z,18.50
2023-09-16T06:48:36.884Z,17.50
2023-09-16T06:51:03.396Z,17.58
2023-09-16T06:53:29.764Z,18.38
2023-09-16T06:55:56.153Z,21.80
2023-09-16T06:58:22.659Z,28.33
2023-09-16T07:00:49.139Z,33.63
2023-09-16T07:03:15.559Z,18.50
2023-09-16T07:05:48.848Z,19.42
2023-09-16T07:08:18.647Z,20.27
2023-09-16T07:10:45.178Z,25.93
2023-09-16T07:13:11.710Z,15.27
2023-09-16T07:15:38.241Z,15.68
2023-09-16T07:18:04.905Z,15.38
2023-09-16T07:20:31.648Z,20.13
2023-09-16T07:22:58.052Z,41.50
2023-09-16T07:25:24.468Z,65.25
2023-09-16T07:27:52.827Z,93.78
2023-09-16T07:30:20.989Z,77.47
2023-09-16T07:32:47.481Z,68.10
2023-09-16T07:35:13.943Z,68.47
2023-09-16T07:37:40.369Z,70.40
2023-09-16T07:40:07.140Z,90.50
2023-09-16T07:42:33.587Z,91.63
2023-09-16T07:44:59.980Z,80.68
2023-09-16T07:47:26.388Z,81.43
2023-09-16T07:49:52.816Z,76.63
2023-09-16T07:52:19.247Z,73.05
2023-09-16T07:54:45.729Z,63.97
2023-09-16T07:57:12.260Z,55.60
2023-09-16T07:59:38.768Z,60.33
2023-09-16T08:02:05.182Z,60.72
2023-09-16T08:04:31.722Z,52.00
2023-09-16T08:06:58.752Z,51.13
2023-09-16T08:09:25.621Z,58.78
2023-09-16T08:11:52.291Z,64.97
2023-09-16T08:14:18.701Z,63.10
2023-09-16T08:16:45.145Z,63.33
2023-09-16T08:19:12.150Z,59.67
2023-09-16T08:21:38.560Z,59.65
2023-09-16T08:24:05.020Z,66.13
2023-09-16T08:26:31.535Z,73.70
2023-09-16T08:28:58.013Z,67.82
2023-09-16T08:31:24.407Z,67.65
2023-09-16T08:33:50.954Z,64.10
2023-09-16T08:36:17.356Z,62.07
2023-09-16T08:38:43.736Z,48.67
2023-09-16T08:41:21.254Z,40.53
2023-09-16T08:43:48.672Z,26.80
2023-09-16T08:46:16.601Z,22.27
2023-09-16T08:48:43.407Z,29.27
2023-09-16T08:51:12.119Z,43.22
2023-09-16T08:53:39.147Z,19.70
2023-09-16T08:56:06.138Z,16.52
2023-09-16T08:58:35.644Z,18.15
2023-09-16T09:01:02.623Z,15.17
2023-09-16T09:03:33.038Z,14.20
2023-09-16T09:05:59.665Z,13.82
2023-09-16T09:08:26.078Z,13.20
2023-09-16T09:10:52.595Z,12.50
2023-09-16T09:13:20.012Z,12.57
2023-09-16T09:15:46.618Z,43.28
2023-09-16T09:18:13.121Z,13.82
2023-09-16T09:20:39.635Z,15.52
2023-09-16T09:23:06.132Z,13.38
2023-09-16T09:25:32.653Z,15.00
2023-09-16T09:27:59.208Z,12.50
2023-09-16T09:30:25.962Z,11.63
2023-09-16T09:32:52.486Z,11.63
2023-09-16T09:35:21.652Z,12.23
2023-09-16T09:37:48.544Z,11.73
2023-09-16T09:40:15.147Z,14.25
2023-09-16T09:42:43.633Z,15.90
2023-09-16T09:45:10.589Z,16.80
2023-09-16T09:47:37.576Z,19.15
2023-09-16T09:50:04.955Z,22.60
2023-09-16T09:52:31.894Z,30.92
2023-09-16T09:54:58.749Z,29.30
2023-09-16T09:57:25.937Z,39.50
2023-09-16T09:59:52.428Z,33.72
2023-09-16T10:02:18.939Z,44.77
2023-09-16T10:04:45.319Z,56.42
2023-09-16T10:07:11.728Z,62.47
2023-09-16T10:09:38.257Z,63.90
2023-09-16T10:12:04.803Z,56.25
2023-09-16T10:14:31.490Z,45.47
2023-09-16T10:16:58.068Z,45.83
2023-09-16T10:19:24.574Z,51.80
2023-09-16T10:21:51.026Z,54.97
2023-09-16T10:24:17.518Z,53.35
2023-09-16T10:26:43.965Z,60.67
2023-09-16T10:29:11.518Z,55.10
2023-09-16T10:31:39.127Z,46.33
2023-09-16T10:34:05.695Z,46.45
2023-09-16T10:36:33.572Z,47.28
2023-09-16T10:39:01.880Z,48.83
2023-09-16T10:41:28.571Z,42.67
2023-09-16T10:43:55.097Z,31.73
2023-09-16T10:46:22.172Z,30.45
2023-09-16T10:48:48.975Z,30.13
2023-09-16T10:51:19.367Z,29.67
2023-09-16T10:53:47.876Z,29.60
2023-09-16T10:56:22.772Z,30.52
2023-09-16T10:58:51.226Z,33.15
2023-09-16T11:01:38.966Z,26.40
2023-09-16T11:04:28.429Z,34.67
2023-09-16T11:06:55.193Z,40.30
2023-09-16T11:09:22.054Z,42.67
2023-09-16T11:11:52.199Z,46.83
2023-09-16T11:14:21.097Z,55.53
2023-09-16T11:16:51.924Z,63.43
2023-09-16T11:19:22.637Z,68.93
2023-09-16T11:21:49.303Z,70.20
2023-09-16T11:24:15.718Z,64.45
2023-09-16T11:26:42.199Z,73.03
2023-09-16T11:29:18.903Z,67.90
2023-09-16T11:31:45.391Z,65.53
2023-09-16T11:34:12.401Z,68.97
2023-09-16T11:36:42.307Z,66.13
2023-09-16T11:39:08.665Z,68.53
2023-09-16T11:41:35.081Z,80.27
2023-09-16T11:44:01.570Z,79.65
2023-09-16T11:46:28.063Z,85.82
2023-09-16T11:48:55.741Z,115.25
2023-09-16T11:51:23.538Z,122.53
2023-09-16T11:53:50.535Z,124.90
2023-09-16T11:56:17.975Z,104.28
2023-09-16T11:58:44.980Z,119.00
2023-09-16T12:01:19.642Z,92.78
2023-09-16T12:03:46.339Z,90.38
2023-09-16T12:06:12.801Z,91.07
2023-09-16T12:08:40.613Z,77.75
2023-09-16T12:11:07.221Z,71.07
2023-09-16T12:13:33.684Z,60.05
2023-09-16T12:16:00.327Z,60.80
2023-09-16T12:18:27.515Z,57.67
2023-09-16T12:20:53.943Z,58.67
2023-09-16T12:23:20.403Z,61.58
2023-09-16T12:25:46.920Z,53.03
2023-09-16T12:28:23.353Z,56.00
2023-09-16T12:30:51.198Z,55.63
2023-09-16T12:33:20.862Z,55.97
2023-09-16T12:35:47.651Z,55.50
2023-09-16T12:38:15.020Z,55.30
2023-09-16T12:40:41.506Z,57.35
2023-09-16T12:43:08.300Z,55.50
2023-09-16T12:45:35.580Z,57.03
2023-09-16T12:48:02.277Z,55.25
2023-09-16T12:50:28.773Z,57.50
2023-09-16T12:52:55.442Z,55.47
2023-09-16T12:55:24.763Z,63.83
2023-09-16T12:57:52.247Z,57.03
2023-09-16T13:00:22.095Z,56.13
2023-09-16T13:02:48.594Z,46.08
2023-09-16T13:05:16.091Z,44.35
2023-09-16T13:07:43.555Z,45.60
2023-09-16T13:10:10.208Z,47.53
2023-09-16T13:12:36.690Z,49.15
2023-09-16T13:15:03.659Z,49.92
2023-09-16T13:17:32.627Z,48.80
2023-09-16T13:19:59.099Z,52.43
2023-09-16T13:22:25.634Z,50.88
2023-09-16T13:24:52.109Z,53.15
2023-09-16T13:27:19.020Z,53.30
2023-09-16T13:29:45.571Z,53.15
2023-09-16T13:32:11.984Z,51.50
2023-09-16T13:34:39.284Z,53.10
2023-09-16T13:37:05.814Z,54.38
2023-09-16T13:39:47.196Z,56.22
2023-09-16T13:42:14.073Z,57.28
2023-09-16T13:44:44.349Z,54.87
2023-09-16T13:47:12.625Z,52.40
2023-09-16T13:49:41.105Z,52.90
2023-09-16T13:52:07.565Z,53.78
2023-09-16T13:54:33.980Z,53.85
2023-09-16T13:57:00.452Z,54.17
2023-09-16T13:59:26.877Z,53.80
2023-09-16T14:01:53.301Z,56.50
2023-09-16T14:04:20.747Z,56.38
2023-09-16T14:06:47.138Z,55.33
2023-09-16T14:09:14.126Z,55.03
2023-09-16T14:11:40.586Z,56.92
2023-09-16T14:14:06.994Z,56.75
2023-09-16T14:16:33.420Z,60.55
2023-09-16T14:19:00.613Z,64.25
2023-09-16T14:21:27.280Z,60.77
2023-09-16T14:23:53.776Z,60.88
2023-09-16T14:26:20.268Z,62.10
2023-09-16T14:28:46.839Z,60.85
2023-09-16T14:31:13.238Z,60.17
2023-09-16T14:33:39.776Z,62.10
2023-09-16T14:36:06.227Z,61.45
2023-09-16T14:38:32.618Z,74.30
2023-09-16T14:41:02.905Z,111.25
2023-09-16T14:43:29.390Z,117.38
2023-09-16T14:45:56.624Z,112.80
2023-09-16T14:48:23.266Z,109.82
2023-09-16T14:50:56.108Z,114.20
2023-09-16T14:53:22.576Z,108.20
2023-09-16T14:55:49.321Z,96.13
2023-09-16T14:58:15.813Z,82.27
2023-09-16T15:00:45.148Z,85.57
2023-09-16T15:03:11.686Z,84.60
2023-09-16T15:05:38.175Z,79.78
2023-09-16T15:08:04.742Z,76.40
2023-09-16T15:10:31.282Z,77.73
2023-09-16T15:12:57.788Z,78.75
2023-09-16T15:15:24.211Z,82.95
2023-09-16T15:17:50.711Z,79.22
2023-09-16T15:20:17.164Z,80.72
2023-09-16T15:22:43.651Z,82.13
2023-09-16T15:25:10.324Z,95.72
2023-09-16T15:27:36.740Z,96.03
2023-09-16T15:30:03.417Z,103.13
2023-09-16T15:32:45.412Z,99.57
2023-09-16T15:35:12.859Z,101.93
2023-09-16T15:37:39.322Z,103.30
2023-09-16T15:40:05.973Z,107.78
2023-09-16T15:42:32.436Z,108.80
2023-09-16T15:44:58.982Z,105.65
2023-09-16T15:47:25.434Z,113.90
2023-09-16T15:49:51.848Z,110.10
2023-09-16T15:52:18.321Z,112.53
2023-09-16T15:54:44.724Z,112.35
2023-09-16T15:57:11.113Z,116.40
2023-09-16T15:59:38.976Z,116.47
2023-09-16T16:02:05.510Z,111.05
2023-09-16T16:04:32.088Z,115.88
2023-09-16T16:06:58.635Z,116.63
2023-09-16T16:09:25.054Z,115.97
2023-09-16T16:11:51.468Z,113.97
2023-09-16T16:14:17.884Z,115.25
2023-09-16T16:16:44.527Z,115.93
2023-09-16T16:19:11.011Z,115.80
2023-09-16T16:21:38.200Z,117.07
2023-09-16T16:24:05.906Z,118.80
2023-09-16T16:26:32.284Z,117.60
2023-09-16T16:28:58.810Z,116.28
2023-09-16T16:31:25.463Z,114.40
2023-09-16T16:33:52.282Z,115.18
2023-09-16T16:36:18.883Z,113.83
2023-09-16T16:38:45.549Z,115.60
2023-09-16T16:41:11.982Z,115.90
2023-09-16T16:43:38.417Z,114.88
2023-09-16T16:46:05.041Z,113.03
2023-09-16T16:48:31.487Z,107.90
2023-09-16T16:50:58.000Z,112.25
2023-09-16T16:53:24.381Z,137.45
2023-09-16T16:55:50.782Z,141.43
2023-09-16T16:58:17.275Z,141.35
2023-09-16T17:00:44.816Z,132.97
2023-09-16T17:03:11.225Z,132.70
2023-09-16T17:05:37.777Z,131.90
2023-09-16T17:08:04.280Z,131.60
2023-09-16T17:10:30.848Z,133.60
2023-09-16T17:12:57.471Z,136.20
2023-09-16T17:15:23.914Z,132.07
2023-09-16T17:17:50.346Z,132.02
2023-09-16T17:20:16.773Z,104.90
2023-09-16T17:22:43.174Z,107.68
2023-09-16T17:25:09.569Z,107.03
2023-09-16T17:27:37.627Z,108.70
2023-09-16T17:30:06.663Z,107.25
2023-09-16T17:32:33.239Z,107.88
2023-09-16T17:35:00.624Z,108.28
2023-09-16T17:37:27.429Z,107.93
2023-09-16T17:39:53.837Z,107.55
2023-09-16T17:42:21.940Z,107.10
2023-09-16T17:44:48.489Z,106.32
2023-09-16T17:47:14.891Z,108.43
2023-09-16T17:49:41.726Z,106.77
2023-09-16T17:52:08.246Z,109.07
2023-09-16T17:54:34.630Z,108.68
2023-09-16T17:57:01.075Z,109.35
2023-09-16T17:59:27.515Z,108.68
2023-09-16T18:01:54.066Z,107.30
2023-09-16T18:04:20.603Z,107.47
2023-09-16T18:06:47.225Z,106.25
2023-09-16T18:09:13.610Z,105.13
2023-09-16T18:11:40.113Z,106.10
2023-09-16T18:14:06.531Z,105.43
2023-09-16T18:16:33.081Z,106.95
2023-09-16T18:18:59.676Z,107.38
2023-09-16T18:21:26.135Z,107.10
2023-09-16T18:23:52.529Z,107.00
2023-09-16T18:26:19.502Z,108.07
2023-09-16T18:28:45.896Z,105.43
2023-09-16T18:31:12.654Z,107.57
2023-09-16T18:33:39.211Z,105.65
2023-09-16T18:36:05.648Z,107.95
2023-09-16T18:38:32.026Z,108.73
2023-09-16T18:40:58.456Z,108.57
2023-09-16T18:43:24.902Z,107.90
2023-09-16T18:45:51.385Z,112.75
2023-09-16T18:48:18.102Z,99.28
2023-09-16T18:50:44.573Z,107.80
2023-09-16T18:53:11.482Z,105.47
2023-09-16T18:55:37.932Z,107.30
2023-09-16T18:58:04.493Z,107.18
2023-09-16T19:00:30.917Z,127.32
2023-09-16T19:02:57.434Z,131.50
2023-09-16T19:05:23.900Z,131.18
2023-09-16T19:07:50.434Z,131.25
2023-09-16T19:10:17.025Z,127.85
2023-09-16T19:12:44.036Z,129.00
2023-09-16T19:15:10.720Z,137.87
2023-09-16T19:17:37.261Z,133.48
2023-09-16T19:20:04.479Z,131.75
2023-09-16T19:22:31.325Z,117.80
2023-09-16T19:24:57.776Z,119.68
2023-09-16T19:27:24.185Z,120.40
2023-09-16T19:29:51.990Z,123.00
2023-09-16T19:32:18.597Z,125.25
2023-09-16T19:34:45.035Z,126.60
2023-09-16T19:37:11.472Z,129.30
2023-09-16T19:39:37.973Z,128.57
2023-09-16T19:42:06.019Z,129.85
2023-09-16T19:44:32.516Z,129.65
2023-09-16T19:46:59.048Z,130.93
2023-09-16T19:49:26.700Z,136.48
2023-09-16T19:51:53.118Z,140.70
2023-09-16T19:54:19.597Z,142.48
2023-09-16T19:57:02.263Z,144.75
2023-09-16T19:59:30.186Z,127.90
2023-09-16T20:01:56.714Z,129.65
2023-09-16T20:04:23.317Z,130.90
2023-09-16T20:06:49.826Z,143.80
2023-09-16T20:09:16.195Z,135.93
2023-09-16T20:11:42.606Z,138.60
2023-09-16T20:14:09.079Z,156.27
2023-09-16T20:16:35.554Z,166.67
2023-09-16T20:19:02.025Z,150.95
2023-09-16T20:21:28.557Z,136.38
2023-09-16T20:23:54.952Z,131.10
2023-09-16T20:26:21.397Z,133.05
2023-09-16T20:28:48.464Z,131.40
2023-09-16T20:31:15.094Z,131.32
2023-09-16T20:33:41.621Z,131.43
2023-09-16T20:36:08.319Z,127.68
2023-09-16T20:38:34.759Z,128.15
2023-09-16T20:41:01.155Z,125.10
2023-09-16T20:43:27.587Z,127.28
2023-09-16T20:45:54.442Z,124.40
2023-09-16T20:48:20.974Z,124.22
2023-09-16T20:50:47.772Z,136.52
2023-09-16T20:53:14.166Z,133.77
2023-09-16T20:55:40.605Z,128.65
2023-09-16T20:58:07.150Z,131.52
2023-09-16T21:00:33.536Z,129.95
2023-09-16T21:02:59.986Z,133.02
2023-09-16T21:05:26.484Z,127.03
2023-09-16T21:07:52.984Z,129.85
2023-09-16T21:10:19.371Z,130.32
2023-09-16T21:12:46.575Z,131.20
2023-09-16T21:15:13.133Z,129.52
2023-09-16T21:17:40.419Z,128.33
2023-09-16T21:20:07.143Z,128.68
2023-09-16T21:22:33.516Z,130.30
2023-09-16T21:24:59.980Z,129.38
2023-09-16T21:27:26.437Z,129.80
2023-09-16T21:29:53.758Z,128.53
2023-09-16T21:32:20.226Z,131.07
2023-09-16T21:34:46.708Z,130.60
2023-09-16T21:37:13.653Z,125.97
2023-09-16T21:39:40.060Z,128.80
2023-09-16T21:42:06.869Z,129.83
2023-09-16T21:44:33.406Z,132.70
2023-09-16T21:46:59.805Z,134.55
2023-09-16T21:49:26.326Z,132.82
2023-09-16T21:51:52.761Z,132.43
2023-09-16T21:54:19.159Z,133.03
2023-09-16T21:56:45.611Z,130.82
2023-09-16T21:59:11.982Z,131.20
2023-09-16T22:01:38.431Z,133.60
2023-09-16T22:04:05.304Z,132.57
2023-09-16T22:06:31.983Z,131.80
2023-09-16T22:08:58.387Z,131.77
2023-09-16T22:11:24.897Z,133.13
2023-09-16T22:13:51.501Z,131.25
2023-09-16T22:16:18.121Z,130.95
2023-09-16T22:18:44.645Z,133.10
2023-09-16T22:21:11.087Z,131.82
2023-09-16T22:23:37.476Z,135.15
2023-09-16T22:26:04.762Z,134.75
2023-09-16T22:28:31.165Z,134.07
2023-09-16T22:30:57.657Z,133.03
2023-09-16T22:33:24.589Z,134.07
2023-09-16T22:35:51.172Z,134.77
2023-09-16T22:38:17.637Z,134.65
2023-09-16T22:40:44.077Z,132.88
2023-09-16T22:43:10.581Z,130.77
2023-09-16T22:45:37.000Z,131.18
2023-09-16T22:48:03.562Z,132.38
2023-09-16T22:50:30.008Z,131.02
2023-09-16T22:52:56.401Z,131.63
2023-09-16T22:55:22.992Z,130.07
2023-09-16T22:57:49.422Z,130.05
2023-09-16T23:00:16.026Z,130.85
2023-09-16T23:02:42.604Z,131.20
2023-09-16T23:05:09.382Z,130.80
2023-09-16T23:07:35.809Z,130.03
2023-09-16T23:10:02.239Z,130.52
2023-09-16T23:12:28.607Z,133.13
2023-09-16T23:14:54.980Z,133.30
2023-09-16T23:17:21.444Z,132.30
2023-09-16T23:19:48.063Z,133.13
2023-09-16T23:22:14.506Z,131.32
2023-09-16T23:24:40.958Z,128.98
2023-09-16T23:27:07.345Z,130.02
2023-09-16T23:29:33.933Z,130.57
2023-09-16T23:32:00.512Z,130.90
2023-09-16T23:34:26.949Z,131.68
2023-09-16T23:36:53.375Z,131.13
2023-09-16T23:39:19.850Z,130.02
2023-09-16T23:41:46.295Z,131.57
2023-09-16T23:44:12.673Z,131.10
2023-09-16T23:46:39.189Z,130.40
2023-09-16T23:49:05.627Z,130.13
2023-09-16T23:51:32.043Z,130.57
2023-09-16T23:53:58.862Z,131.23
2023-09-16T23:56:25.791Z,128.90
2023-09-16T23:58:52.188Z,129.30
